DLH5PX EDDB-RKSI
Flight info
| Callsign | DLH5PX |
|---|---|
| Flight time | N/A |
| Altitude | 33000 |
| Route | ARSAP DCT LOLKA DCT TISAD DCT ARTAT DCT TBN DCT NOLGA DCT BARAD DCT SUBUT DCT LEYLA/K0900F330 DCT SARIN/K0898S1005 DCT FKG DCT GOVSA DCT DKO DCT HUR DCT LADIX DCT VAPGU DCT ORAVA DCT UNSEK DCT DONVO DCT AGAVO/N0494F330 DCT REBIT |
| Aircraft | A346/H-SDE2E3FGHIJ3J4J5M1RWXY/LB1D1 |
Departure
| Time | 2026-04-30 19:05 |
|---|---|
| Airport | Berlin Brandenburg Airport (EDDB) |
Arrival
| Time | N/A |
|---|---|
| Airport | Incheon International Airport (RKSI) |
| Time | Latitude | Longitude | Altitude | Speed | Heading |
|---|---|---|---|---|---|
| 2026-04-30 18:30 | 52.36687 | 13.49937 | 158 ft | 0 kts | 249° |
| 2026-04-30 18:53 | 52.36693 | 13.49963 | 157 ft | 4 kts | 255° |
| 2026-04-30 18:53 | 52.36697 | 13.50005 | 157 ft | 4 kts | 269° |
| 2026-04-30 18:54 | 52.36694 | 13.50045 | 157 ft | 4 kts | 288° |
| 2026-04-30 18:54 | 52.36683 | 13.50079 | 157 ft | 4 kts | 312° |
| 2026-04-30 18:54 | 52.36665 | 13.50102 | 157 ft | 3 kts | 337° |
| 2026-04-30 18:54 | 52.36661 | 13.50105 | 157 ft | 0 kts | 339° |
| 2026-04-30 18:58 | 52.36682 | 13.50092 | 157 ft | 10 kts | 339° |
| 2026-04-30 18:58 | 52.36755 | 13.50039 | 157 ft | 11 kts | 316° |
| 2026-04-30 18:58 | 52.36768 | 13.49909 | 156 ft | 13 kts | 255° |
| 2026-04-30 18:59 | 52.36701 | 13.49621 | 156 ft | 14 kts | 249° |
| 2026-04-30 19:00 | 52.36585 | 13.49128 | 155 ft | 16 kts | 249° |
| 2026-04-30 19:00 | 52.36541 | 13.48945 | 156 ft | 19 kts | 249° |
| 2026-04-30 19:00 | 52.36430 | 13.48472 | 156 ft | 14 kts | 249° |
| 2026-04-30 19:01 | 52.36437 | 13.48272 | 155 ft | 9 kts | 326° |
| 2026-04-30 19:01 | 52.36476 | 13.48239 | 156 ft | 0 kts | 336° |
| 2026-04-30 19:03 | 52.36549 | 13.48187 | 157 ft | 14 kts | 338° |
| 2026-04-30 19:03 | 52.36705 | 13.48235 | 161 ft | 11 kts | 59° |
| 2026-04-30 19:04 | 52.36757 | 13.48435 | 163 ft | 13 kts | 70° |
| 2026-04-30 19:04 | 52.37107 | 13.49929 | 167 ft | 124 kts | 69° |
| 2026-04-30 19:05 | 52.37937 | 13.53427 | 436 ft | 182 kts | 69° |
| 2026-04-30 19:05 | 52.38848 | 13.57360 | 1499 ft | 195 kts | 67° |
| 2026-04-30 19:06 | 52.39648 | 13.60743 | 2096 ft | 215 kts | 67° |
| 2026-04-30 19:06 | 52.40201 | 13.63076 | 2451 ft | 227 kts | 67° |
| 2026-04-30 19:06 | 52.41422 | 13.68234 | 3107 ft | 255 kts | 67° |
| 2026-04-30 19:07 | 52.42714 | 13.73726 | 4383 ft | 258 kts | 67° |
| 2026-04-30 19:07 | 52.43353 | 13.76444 | 5008 ft | 260 kts | 67° |
| 2026-04-30 19:08 | 52.44799 | 13.81917 | 6311 ft | 261 kts | 63° |
| 2026-04-30 19:08 | 52.46361 | 13.87303 | 7623 ft | 262 kts | 63° |
| 2026-04-30 19:08 | 52.47143 | 13.90015 | 8278 ft | 262 kts | 63° |
| 2026-04-30 19:09 | 52.48704 | 13.95441 | 9619 ft | 263 kts | 63° |
| 2026-04-30 19:09 | 52.49487 | 13.98165 | 10291 ft | 264 kts | 63° |
| 2026-04-30 19:09 | 52.50274 | 14.00904 | 10874 ft | 265 kts | 63° |
| 2026-04-30 19:10 | 52.51851 | 14.06398 | 12041 ft | 267 kts | 63° |
| 2026-04-30 19:10 | 52.53434 | 14.11938 | 13221 ft | 268 kts | 64° |
| 2026-04-30 19:11 | 52.53936 | 14.14918 | 13789 ft | 275 kts | 84° |
| 2026-04-30 19:11 | 52.52586 | 14.20971 | 14600 ft | 311 kts | 126° |
| 2026-04-30 19:11 | 52.51058 | 14.23591 | 14834 ft | 324 kts | 127° |
| 2026-04-30 19:12 | 52.49459 | 14.26289 | 15051 ft | 335 kts | 128° |
| 2026-04-30 19:12 | 52.47832 | 14.29035 | 15322 ft | 344 kts | 128° |
| 2026-04-30 19:12 | 52.46118 | 14.31928 | 15797 ft | 347 kts | 128° |
| 2026-04-30 19:13 | 52.42761 | 14.37599 | 16776 ft | 351 kts | 127° |
| 2026-04-30 19:13 | 52.39333 | 14.43402 | 17709 ft | 356 kts | 127° |
| 2026-04-30 19:13 | 52.37600 | 14.46332 | 18176 ft | 359 kts | 127° |
| 2026-04-30 19:14 | 52.35859 | 14.49275 | 18633 ft | 361 kts | 127° |
| 2026-04-30 19:14 | 52.34100 | 14.52246 | 19045 ft | 364 kts | 127° |
| 2026-04-30 19:14 | 52.32329 | 14.55236 | 19433 ft | 367 kts | 127° |
| 2026-04-30 19:14 | 52.30546 | 14.58242 | 19818 ft | 370 kts | 127° |
| 2026-04-30 19:15 | 52.28728 | 14.61307 | 20007 ft | 381 kts | 127° |
| 2026-04-30 19:15 | 52.24925 | 14.67699 | 20408 ft | 402 kts | 127° |
| 2026-04-30 19:15 | 52.22970 | 14.71054 | 20598 ft | 411 kts | 125° |
| 2026-04-30 19:16 | 52.21099 | 14.74629 | 20784 ft | 418 kts | 123° |
| 2026-04-30 19:16 | 52.19235 | 14.78333 | 21050 ft | 425 kts | 123° |
| 2026-04-30 19:16 | 52.15453 | 14.85832 | 21936 ft | 431 kts | 123° |
| 2026-04-30 19:17 | 52.13541 | 14.89618 | 22352 ft | 434 kts | 123° |
| 2026-04-30 19:17 | 52.09678 | 14.97253 | 23177 ft | 440 kts | 123° |
| 2026-04-30 19:17 | 52.07721 | 15.01112 | 23598 ft | 443 kts | 123° |
| 2026-04-30 19:18 | 52.04427 | 15.07595 | 24213 ft | 448 kts | 123° |
| 2026-04-30 19:18 | 52.01757 | 15.12838 | 24678 ft | 451 kts | 123° |
| 2026-04-30 19:18 | 51.99746 | 15.16779 | 25034 ft | 454 kts | 123° |
| 2026-04-30 19:19 | 51.97728 | 15.20727 | 25393 ft | 456 kts | 123° |
| 2026-04-30 19:19 | 51.95694 | 15.24702 | 25727 ft | 458 kts | 123° |
| 2026-04-30 19:19 | 51.91628 | 15.32627 | 26418 ft | 462 kts | 123° |
| 2026-04-30 19:20 | 51.89562 | 15.36645 | 26761 ft | 464 kts | 122° |
| 2026-04-30 19:20 | 51.87491 | 15.40668 | 27103 ft | 466 kts | 122° |
| 2026-04-30 19:20 | 51.83310 | 15.48771 | 27760 ft | 470 kts | 122° |
| 2026-04-30 19:21 | 51.81203 | 15.52842 | 28100 ft | 473 kts | 122° |
| 2026-04-30 19:21 | 51.76960 | 15.61023 | 28735 ft | 476 kts | 122° |
| 2026-04-30 19:22 | 51.72697 | 15.69209 | 29628 ft | 474 kts | 122° |
| 2026-04-30 19:22 | 51.66349 | 15.81352 | 30957 ft | 469 kts | 122° |
| 2026-04-30 19:23 | 51.60042 | 15.93378 | 31998 ft | 467 kts | 121° |
| 2026-04-30 19:24 | 51.55828 | 16.01383 | 32550 ft | 469 kts | 121° |
| 2026-04-30 19:24 | 51.53712 | 16.05393 | 32803 ft | 470 kts | 121° |
| 2026-04-30 19:24 | 51.49463 | 16.13421 | 33321 ft | 472 kts | 121° |
| 2026-04-30 19:25 | 51.43057 | 16.25474 | 33406 ft | 473 kts | 121° |
| 2026-04-30 19:26 | 51.34494 | 16.41492 | 33414 ft | 473 kts | 121° |
| 2026-04-30 19:27 | 51.28070 | 16.53446 | 33407 ft | 472 kts | 121° |
| 2026-04-30 19:28 | 51.21630 | 16.65376 | 33411 ft | 472 kts | 121° |
| 2026-04-30 19:29 | 51.13043 | 16.81194 | 33405 ft | 471 kts | 121° |
| 2026-04-30 19:30 | 51.04561 | 16.96724 | 33409 ft | 470 kts | 121° |
| 2026-04-30 19:31 | 50.95956 | 17.12383 | 33411 ft | 470 kts | 121° |
| 2026-04-30 19:31 | 50.89499 | 17.24070 | 33407 ft | 469 kts | 121° |
| 2026-04-30 19:32 | 50.85217 | 17.31791 | 33410 ft | 469 kts | 121° |
| 2026-04-30 19:32 | 50.80902 | 17.39546 | 33404 ft | 469 kts | 121° |
| 2026-04-30 19:33 | 50.76585 | 17.47282 | 33404 ft | 468 kts | 121° |
| 2026-04-30 19:33 | 50.72270 | 17.54992 | 33407 ft | 468 kts | 121° |
| 2026-04-30 19:34 | 50.67955 | 17.62679 | 33404 ft | 468 kts | 121° |
| 2026-04-30 19:35 | 50.61475 | 17.74181 | 33406 ft | 467 kts | 121° |
| 2026-04-30 19:35 | 50.57149 | 17.81831 | 33400 ft | 467 kts | 121° |
| 2026-04-30 19:36 | 50.52828 | 17.89450 | 33401 ft | 467 kts | 121° |
| 2026-04-30 19:36 | 50.46334 | 18.00858 | 33403 ft | 467 kts | 121° |
| 2026-04-30 19:37 | 50.41998 | 18.08447 | 33394 ft | 467 kts | 122° |
| 2026-04-30 19:37 | 50.37651 | 18.16032 | 33391 ft | 467 kts | 122° |
| 2026-04-30 19:38 | 50.33298 | 18.23605 | 33391 ft | 467 kts | 122° |
| 2026-04-30 19:38 | 50.28937 | 18.31170 | 33394 ft | 468 kts | 122° |
| 2026-04-30 19:39 | 50.24567 | 18.38726 | 33393 ft | 469 kts | 122° |
| 2026-04-30 19:39 | 50.20178 | 18.46294 | 33390 ft | 469 kts | 122° |
| 2026-04-30 19:40 | 50.15784 | 18.53848 | 33391 ft | 470 kts | 123° |
| 2026-04-30 19:40 | 50.11376 | 18.61402 | 33391 ft | 471 kts | 123° |
| 2026-04-30 19:41 | 50.06988 | 18.68901 | 33384 ft | 472 kts | 123° |
| 2026-04-30 19:41 | 50.02524 | 18.76508 | 33381 ft | 472 kts | 123° |
| 2026-04-30 19:42 | 49.98069 | 18.84075 | 33379 ft | 473 kts | 123° |
| 2026-04-30 19:42 | 49.93643 | 18.91572 | 33378 ft | 474 kts | 123° |
| 2026-04-30 19:43 | 49.89174 | 18.99118 | 33380 ft | 475 kts | 124° |
| 2026-04-30 19:44 | 49.82456 | 19.10423 | 33382 ft | 476 kts | 124° |
| 2026-04-30 19:44 | 49.77959 | 19.17964 | 33383 ft | 477 kts | 124° |
| 2026-04-30 19:45 | 49.73443 | 19.25513 | 33386 ft | 478 kts | 124° |
| 2026-04-30 19:45 | 49.68923 | 19.33042 | 33367 ft | 478 kts | 125° |
| 2026-04-30 19:46 | 49.64388 | 19.40579 | 33376 ft | 478 kts | 125° |
| 2026-04-30 19:46 | 49.59849 | 19.48100 | 33386 ft | 479 kts | 125° |
| 2026-04-30 19:47 | 49.55301 | 19.55612 | 33389 ft | 479 kts | 126° |
| 2026-04-30 19:47 | 49.50756 | 19.63099 | 33388 ft | 480 kts | 126° |
| 2026-04-30 19:48 | 49.46135 | 19.70690 | 33390 ft | 480 kts | 126° |
| 2026-04-30 19:48 | 49.41557 | 19.78189 | 33389 ft | 481 kts | 126° |
| 2026-04-30 19:49 | 49.36967 | 19.85684 | 33387 ft | 481 kts | 126° |
| 2026-04-30 19:49 | 49.30037 | 19.96961 | 33378 ft | 482 kts | 127° |
| 2026-04-30 19:50 | 49.25573 | 20.04201 | 33372 ft | 483 kts | 127° |
| 2026-04-30 19:50 | 49.20927 | 20.11684 | 33363 ft | 484 kts | 128° |
| 2026-04-30 19:51 | 49.16130 | 20.19107 | 33338 ft | 485 kts | 129° |
| 2026-04-30 19:51 | 49.11370 | 20.26410 | 33343 ft | 485 kts | 129° |
| 2026-04-30 19:52 | 49.07410 | 20.32490 | 33340 ft | 486 kts | 129° |
| 2026-04-30 19:52 | 49.02635 | 20.39810 | 33345 ft | 486 kts | 129° |
| 2026-04-30 19:53 | 48.97843 | 20.47142 | 33358 ft | 486 kts | 129° |
| 2026-04-30 19:53 | 48.93058 | 20.54442 | 33356 ft | 487 kts | 130° |
| 2026-04-30 19:54 | 48.88268 | 20.61729 | 33363 ft | 487 kts | 130° |
| 2026-04-30 19:54 | 48.83472 | 20.69005 | 33362 ft | 487 kts | 130° |
| 2026-04-30 19:55 | 48.78663 | 20.76278 | 33354 ft | 487 kts | 130° |
| 2026-04-30 19:55 | 48.73784 | 20.83637 | 33353 ft | 488 kts | 130° |
| 2026-04-30 19:56 | 48.68963 | 20.90889 | 33351 ft | 488 kts | 130° |
| 2026-04-30 19:56 | 48.64135 | 20.98129 | 33349 ft | 488 kts | 131° |
| 2026-04-30 19:57 | 48.59303 | 21.05355 | 33343 ft | 489 kts | 131° |
| 2026-04-30 19:57 | 48.54490 | 21.12532 | 33347 ft | 489 kts | 131° |
| 2026-04-30 19:58 | 48.49639 | 21.19747 | 33349 ft | 490 kts | 131° |
| 2026-04-30 19:58 | 48.44778 | 21.26952 | 33345 ft | 490 kts | 131° |
| 2026-04-30 19:59 | 48.39913 | 21.34146 | 33341 ft | 490 kts | 131° |
| 2026-04-30 20:00 | 48.32600 | 21.44919 | 33337 ft | 490 kts | 132° |
| 2026-04-30 20:00 | 48.27716 | 21.52088 | 33337 ft | 490 kts | 132° |
| 2026-04-30 20:01 | 48.20380 | 21.62819 | 33343 ft | 491 kts | 132° |
| 2026-04-30 20:01 | 48.15478 | 21.69965 | 33343 ft | 491 kts | 132° |
| 2026-04-30 20:02 | 48.08117 | 21.80658 | 33346 ft | 492 kts | 132° |
| 2026-04-30 20:03 | 48.00774 | 21.91284 | 33342 ft | 492 kts | 133° |
| 2026-04-30 20:03 | 47.95831 | 21.98411 | 33340 ft | 492 kts | 133° |
| 2026-04-30 20:04 | 47.90898 | 22.05504 | 33334 ft | 493 kts | 133° |
| 2026-04-30 20:05 | 47.83461 | 22.16160 | 33326 ft | 493 kts | 133° |
| 2026-04-30 20:05 | 47.76028 | 22.26766 | 33323 ft | 494 kts | 133° |
| 2026-04-30 20:06 | 47.71058 | 22.33833 | 33322 ft | 494 kts | 133° |
| 2026-04-30 20:06 | 47.66086 | 22.40884 | 33321 ft | 494 kts | 134° |
| 2026-04-30 20:07 | 47.61106 | 22.47929 | 33320 ft | 495 kts | 134° |
| 2026-04-30 20:08 | 47.53657 | 22.58448 | 33316 ft | 495 kts | 133° |
| 2026-04-30 20:08 | 47.48840 | 22.65854 | 33316 ft | 495 kts | 131° |
| 2026-04-30 20:09 | 47.44069 | 22.73253 | 33316 ft | 495 kts | 131° |
| 2026-04-30 20:09 | 47.36924 | 22.84303 | 33316 ft | 496 kts | 131° |
| 2026-04-30 20:10 | 47.29759 | 22.95339 | 33312 ft | 497 kts | 131° |
| 2026-04-30 20:11 | 47.22569 | 23.06368 | 33312 ft | 497 kts | 131° |
| 2026-04-30 20:11 | 47.17755 | 23.13726 | 33312 ft | 497 kts | 131° |
| 2026-04-30 20:12 | 47.10523 | 23.24743 | 33317 ft | 498 kts | 132° |
| 2026-04-30 20:13 | 47.05703 | 23.32060 | 33301 ft | 499 kts | 132° |
| 2026-04-30 20:13 | 47.00864 | 23.39385 | 33325 ft | 500 kts | 132° |
| 2026-04-30 20:14 | 46.96015 | 23.46703 | 33317 ft | 500 kts | 132° |
| 2026-04-30 20:14 | 46.91142 | 23.54040 | 33318 ft | 501 kts | 132° |
| 2026-04-30 20:15 | 46.86277 | 23.61344 | 33318 ft | 501 kts | 132° |
| 2026-04-30 20:15 | 46.81427 | 23.68604 | 33319 ft | 502 kts | 132° |
| 2026-04-30 20:16 | 46.76539 | 23.75903 | 33319 ft | 503 kts | 133° |
| 2026-04-30 20:16 | 46.71621 | 23.83226 | 33320 ft | 504 kts | 133° |
| 2026-04-30 20:17 | 46.66670 | 23.90577 | 33326 ft | 504 kts | 133° |
| 2026-04-30 20:17 | 46.61748 | 23.97865 | 33327 ft | 505 kts | 133° |
| 2026-04-30 20:18 | 46.56804 | 24.05164 | 33333 ft | 506 kts | 133° |
| 2026-04-30 20:18 | 46.51857 | 24.12448 | 33330 ft | 506 kts | 133° |
| 2026-04-30 20:19 | 46.46869 | 24.19772 | 33326 ft | 507 kts | 133° |
| 2026-04-30 20:19 | 46.41889 | 24.27064 | 33321 ft | 507 kts | 133° |
| 2026-04-30 20:20 | 46.36885 | 24.34372 | 33319 ft | 508 kts | 133° |
| 2026-04-30 20:20 | 46.31884 | 24.41656 | 33322 ft | 508 kts | 134° |
| 2026-04-30 20:21 | 46.26912 | 24.48877 | 33329 ft | 508 kts | 134° |
| 2026-04-30 20:21 | 46.21901 | 24.56136 | 33337 ft | 508 kts | 134° |
| 2026-04-30 20:22 | 46.16879 | 24.63388 | 33344 ft | 509 kts | 134° |
| 2026-04-30 20:22 | 46.11868 | 24.70607 | 33353 ft | 509 kts | 134° |
| 2026-04-30 20:23 | 46.06851 | 24.77813 | 33357 ft | 509 kts | 135° |
| 2026-04-30 20:23 | 46.01795 | 24.85055 | 33355 ft | 510 kts | 135° |
| 2026-04-30 20:24 | 45.96740 | 24.92276 | 33359 ft | 510 kts | 135° |
| 2026-04-30 20:24 | 45.91690 | 24.99471 | 33362 ft | 511 kts | 135° |
| 2026-04-30 20:25 | 45.84077 | 25.10282 | 33358 ft | 511 kts | 135° |
| 2026-04-30 20:26 | 45.76473 | 25.21037 | 33342 ft | 511 kts | 136° |
| 2026-04-30 20:26 | 45.68870 | 25.31746 | 33329 ft | 510 kts | 136° |
| 2026-04-30 20:27 | 45.58767 | 25.45908 | 33324 ft | 510 kts | 136° |
| 2026-04-30 20:28 | 45.48581 | 25.60109 | 33341 ft | 510 kts | 137° |
| 2026-04-30 20:30 | 45.35860 | 25.77739 | 33363 ft | 510 kts | 137° |
| 2026-04-30 20:31 | 45.20544 | 25.98817 | 33349 ft | 511 kts | 138° |
| 2026-04-30 20:32 | 45.07703 | 26.16359 | 33346 ft | 511 kts | 139° |
| 2026-04-30 20:33 | 44.99996 | 26.26831 | 33335 ft | 512 kts | 139° |
| 2026-04-30 20:34 | 44.92264 | 26.37298 | 33325 ft | 512 kts | 139° |
| 2026-04-30 20:35 | 44.84578 | 26.47664 | 33328 ft | 511 kts | 140° |
| 2026-04-30 20:35 | 44.76861 | 26.58028 | 33317 ft | 510 kts | 140° |
| 2026-04-30 20:36 | 44.71712 | 26.64920 | 33331 ft | 511 kts | 140° |
| 2026-04-30 20:37 | 44.63980 | 26.75238 | 33321 ft | 510 kts | 141° |
| 2026-04-30 20:37 | 44.58822 | 26.82098 | 33319 ft | 510 kts | 141° |
| 2026-04-30 20:38 | 44.53662 | 26.88943 | 33315 ft | 510 kts | 141° |
| 2026-04-30 20:38 | 44.48500 | 26.95775 | 33314 ft | 510 kts | 141° |
| 2026-04-30 20:39 | 44.40786 | 27.05950 | 33304 ft | 510 kts | 142° |
| 2026-04-30 20:40 | 44.33027 | 27.16148 | 33302 ft | 510 kts | 142° |
| 2026-04-30 20:40 | 44.27851 | 27.22925 | 33301 ft | 510 kts | 143° |
| 2026-04-30 20:41 | 44.20082 | 27.33069 | 33296 ft | 509 kts | 143° |
| 2026-04-30 20:41 | 44.14905 | 27.39808 | 33291 ft | 509 kts | 143° |
| 2026-04-30 20:42 | 44.09727 | 27.46532 | 33290 ft | 509 kts | 143° |
| 2026-04-30 20:43 | 44.01953 | 27.56592 | 33283 ft | 509 kts | 144° |
| 2026-04-30 20:43 | 43.97641 | 27.62157 | 33283 ft | 509 kts | 144° |
| 2026-04-30 20:44 | 43.89004 | 27.73266 | 33269 ft | 509 kts | 144° |
| 2026-04-30 20:45 | 43.79465 | 27.85484 | 33263 ft | 510 kts | 145° |
| 2026-04-30 20:45 | 43.74243 | 27.92149 | 33252 ft | 511 kts | 145° |
| 2026-04-30 20:46 | 43.63770 | 28.05463 | 33247 ft | 512 kts | 145° |
| 2026-04-30 20:47 | 43.55892 | 28.15438 | 33249 ft | 512 kts | 145° |
| 2026-04-30 20:48 | 43.48008 | 28.25385 | 33235 ft | 512 kts | 145° |
| 2026-04-30 20:48 | 43.42737 | 28.32013 | 33226 ft | 512 kts | 145° |
| 2026-04-30 20:49 | 43.37477 | 28.38613 | 33226 ft | 511 kts | 145° |
| 2026-04-30 20:50 | 43.29594 | 28.48474 | 33216 ft | 510 kts | 146° |
| 2026-04-30 20:50 | 43.24338 | 28.55028 | 33213 ft | 510 kts | 146° |
| 2026-04-30 20:51 | 43.19074 | 28.61575 | 33204 ft | 510 kts | 146° |
| 2026-04-30 20:51 | 43.11178 | 28.71365 | 33207 ft | 510 kts | 146° |
| 2026-04-30 20:52 | 43.05903 | 28.77885 | 33203 ft | 511 kts | 146° |
| 2026-04-30 20:53 | 42.97978 | 28.87651 | 33195 ft | 511 kts | 147° |
| 2026-04-30 20:53 | 42.92682 | 28.94159 | 33180 ft | 512 kts | 147° |
| 2026-04-30 20:54 | 42.84755 | 29.03869 | 33178 ft | 513 kts | 147° |
| 2026-04-30 20:55 | 42.76777 | 29.13610 | 33167 ft | 513 kts | 147° |
| 2026-04-30 20:55 | 42.71449 | 29.20094 | 33165 ft | 513 kts | 147° |
| 2026-04-30 20:56 | 42.63453 | 29.29798 | 33158 ft | 513 kts | 147° |
| 2026-04-30 20:57 | 42.55453 | 29.39474 | 33151 ft | 513 kts | 147° |
| 2026-04-30 20:57 | 42.50112 | 29.45918 | 33144 ft | 513 kts | 147° |
| 2026-04-30 20:58 | 42.42218 | 29.55777 | 33131 ft | 521 kts | 139° |
| 2026-04-30 20:58 | 42.38023 | 29.63927 | 33132 ft | 536 kts | 123° |
| 2026-04-30 20:59 | 42.35387 | 29.73456 | 33128 ft | 547 kts | 107° |
| 2026-04-30 20:59 | 42.34730 | 29.78553 | 33141 ft | 550 kts | 100° |
| 2026-04-30 21:00 | 42.33019 | 29.99148 | 33124 ft | 550 kts | 99° |
| 2026-04-30 21:01 | 42.31645 | 30.14476 | 33128 ft | 549 kts | 100° |
| 2026-04-30 21:02 | 42.30212 | 30.29841 | 33111 ft | 548 kts | 100° |
| 2026-04-30 21:02 | 42.29246 | 30.40054 | 33105 ft | 547 kts | 100° |
| 2026-04-30 21:03 | 42.28272 | 30.50248 | 33105 ft | 546 kts | 100° |
| 2026-04-30 21:03 | 42.27291 | 30.60418 | 33099 ft | 545 kts | 100° |
| 2026-04-30 21:04 | 42.26302 | 30.70585 | 33096 ft | 544 kts | 100° |
| 2026-04-30 21:04 | 42.24806 | 30.85784 | 33090 ft | 543 kts | 101° |
| 2026-04-30 21:05 | 42.23800 | 30.95892 | 33093 ft | 542 kts | 101° |
| 2026-04-30 21:05 | 42.22785 | 31.05983 | 33081 ft | 541 kts | 101° |
| 2026-04-30 21:06 | 42.21764 | 31.16055 | 33069 ft | 540 kts | 101° |
| 2026-04-30 21:06 | 42.20742 | 31.26042 | 33063 ft | 540 kts | 101° |
| 2026-04-30 21:07 | 42.19705 | 31.36081 | 33070 ft | 539 kts | 101° |
| 2026-04-30 21:07 | 42.18663 | 31.46094 | 33067 ft | 538 kts | 101° |
| 2026-04-30 21:08 | 42.17612 | 31.56105 | 33059 ft | 538 kts | 101° |
| 2026-04-30 21:08 | 42.16554 | 31.66089 | 33059 ft | 537 kts | 101° |
| 2026-04-30 21:09 | 42.15483 | 31.76109 | 33051 ft | 537 kts | 101° |
| 2026-04-30 21:09 | 42.14407 | 31.86098 | 33048 ft | 537 kts | 101° |
| 2026-04-30 21:10 | 42.13325 | 31.96056 | 33046 ft | 536 kts | 101° |
| 2026-04-30 21:10 | 42.12242 | 32.05944 | 33043 ft | 536 kts | 101° |
| 2026-04-30 21:11 | 42.11138 | 32.15947 | 33032 ft | 535 kts | 101° |
| 2026-04-30 21:11 | 42.10040 | 32.25807 | 33033 ft | 535 kts | 101° |
| 2026-04-30 21:12 | 42.08927 | 32.35724 | 33032 ft | 534 kts | 102° |
| 2026-04-30 21:12 | 42.07808 | 32.45611 | 33023 ft | 533 kts | 102° |
| 2026-04-30 21:13 | 42.06681 | 32.55488 | 33024 ft | 533 kts | 102° |
| 2026-04-30 21:13 | 42.05549 | 32.65339 | 33016 ft | 532 kts | 102° |
| 2026-04-30 21:14 | 42.04408 | 32.75189 | 33015 ft | 531 kts | 102° |
| 2026-04-30 21:14 | 42.03262 | 32.85009 | 33022 ft | 531 kts | 102° |
| 2026-04-30 21:15 | 42.02106 | 32.94834 | 33014 ft | 531 kts | 102° |
| 2026-04-30 21:15 | 42.00943 | 33.04651 | 33019 ft | 531 kts | 102° |
| 2026-04-30 21:16 | 41.99779 | 33.14398 | 33028 ft | 530 kts | 102° |
| 2026-04-30 21:16 | 41.98600 | 33.24198 | 33026 ft | 530 kts | 102° |
| 2026-04-30 21:17 | 41.97412 | 33.33996 | 33020 ft | 531 kts | 102° |
| 2026-04-30 21:17 | 41.96214 | 33.43802 | 33026 ft | 531 kts | 102° |
| 2026-04-30 21:18 | 41.95009 | 33.53589 | 33015 ft | 530 kts | 102° |
| 2026-04-30 21:18 | 41.93795 | 33.63369 | 33024 ft | 530 kts | 102° |
| 2026-04-30 21:19 | 41.92576 | 33.73146 | 33026 ft | 530 kts | 102° |
| 2026-04-30 21:19 | 41.91347 | 33.82924 | 33023 ft | 530 kts | 102° |
| 2026-04-30 21:20 | 41.90111 | 33.92690 | 33022 ft | 530 kts | 102° |
| 2026-04-30 21:20 | 41.88866 | 34.02454 | 33021 ft | 530 kts | 102° |
| 2026-04-30 21:21 | 41.87613 | 34.12216 | 33018 ft | 530 kts | 102° |
| 2026-04-30 21:22 | 41.85720 | 34.26835 | 33010 ft | 529 kts | 102° |
| 2026-04-30 21:23 | 41.83171 | 34.46301 | 33013 ft | 529 kts | 102° |
| 2026-04-30 21:23 | 41.81235 | 34.60895 | 33022 ft | 528 kts | 102° |
| 2026-04-30 21:24 | 41.79936 | 34.70606 | 33022 ft | 528 kts | 102° |
| 2026-04-30 21:24 | 41.78640 | 34.80232 | 33025 ft | 527 kts | 102° |
| 2026-04-30 21:25 | 41.76670 | 34.94741 | 33032 ft | 526 kts | 103° |
| 2026-04-30 21:26 | 41.74679 | 35.09255 | 33039 ft | 525 kts | 103° |
| 2026-04-30 21:27 | 41.72683 | 35.23671 | 33045 ft | 524 kts | 103° |
| 2026-04-30 21:27 | 41.71342 | 35.33283 | 33047 ft | 524 kts | 103° |
| 2026-04-30 21:28 | 41.69315 | 35.47695 | 33053 ft | 524 kts | 103° |
| 2026-04-30 21:29 | 41.67272 | 35.62077 | 33052 ft | 524 kts | 103° |
| 2026-04-30 21:30 | 41.63837 | 35.85967 | 33059 ft | 523 kts | 103° |
| 2026-04-30 21:31 | 41.60348 | 36.09863 | 33071 ft | 523 kts | 103° |
| 2026-04-30 21:32 | 41.58232 | 36.24182 | 33079 ft | 523 kts | 103° |
| 2026-04-30 21:32 | 41.56811 | 36.33729 | 33074 ft | 523 kts | 103° |
| 2026-04-30 21:33 | 41.54666 | 36.48024 | 33083 ft | 523 kts | 103° |
| 2026-04-30 21:34 | 41.53228 | 36.57542 | 33083 ft | 522 kts | 103° |
| 2026-04-30 21:34 | 41.51056 | 36.71812 | 33086 ft | 522 kts | 103° |
| 2026-04-30 21:35 | 41.49599 | 36.81313 | 33082 ft | 522 kts | 103° |
| 2026-04-30 21:35 | 41.48136 | 36.90795 | 33079 ft | 521 kts | 103° |
| 2026-04-30 21:36 | 41.46915 | 36.98671 | 33079 ft | 521 kts | 104° |
| 2026-04-30 21:37 | 41.43714 | 37.19132 | 33075 ft | 520 kts | 104° |
| 2026-04-30 21:37 | 41.42466 | 37.27045 | 33068 ft | 520 kts | 104° |
| 2026-04-30 21:38 | 41.40969 | 37.36484 | 33068 ft | 519 kts | 104° |
| 2026-04-30 21:38 | 41.39467 | 37.45904 | 33070 ft | 519 kts | 104° |
| 2026-04-30 21:39 | 41.37967 | 37.55262 | 33072 ft | 519 kts | 104° |
| 2026-04-30 21:39 | 41.36450 | 37.64670 | 33068 ft | 519 kts | 104° |
| 2026-04-30 21:40 | 41.34925 | 37.74074 | 33069 ft | 519 kts | 104° |
| 2026-04-30 21:40 | 41.33395 | 37.83461 | 33069 ft | 519 kts | 104° |
| 2026-04-30 21:41 | 41.31857 | 37.92850 | 33076 ft | 519 kts | 104° |
| 2026-04-30 21:41 | 41.30310 | 38.02236 | 33074 ft | 519 kts | 104° |
| 2026-04-30 21:42 | 41.28756 | 38.11620 | 33093 ft | 519 kts | 104° |
| 2026-04-30 21:42 | 41.27195 | 38.20990 | 33086 ft | 518 kts | 104° |
| 2026-04-30 21:43 | 41.25628 | 38.30352 | 33087 ft | 518 kts | 104° |
| 2026-04-30 21:43 | 41.24051 | 38.39721 | 33084 ft | 518 kts | 105° |
| 2026-04-30 21:44 | 41.22468 | 38.49073 | 33077 ft | 518 kts | 105° |
| 2026-04-30 21:44 | 41.20879 | 38.58414 | 33080 ft | 518 kts | 105° |
| 2026-04-30 21:45 | 41.19282 | 38.67753 | 33075 ft | 518 kts | 105° |
| 2026-04-30 21:45 | 41.17679 | 38.77078 | 33063 ft | 518 kts | 105° |
| 2026-04-30 21:46 | 41.16068 | 38.86405 | 33066 ft | 518 kts | 105° |
| 2026-04-30 21:46 | 41.14450 | 38.95724 | 33061 ft | 518 kts | 105° |
| 2026-04-30 21:47 | 41.12820 | 39.05055 | 33061 ft | 518 kts | 105° |
| 2026-04-30 21:47 | 41.11185 | 39.14375 | 33056 ft | 518 kts | 105° |
| 2026-04-30 21:48 | 41.09544 | 39.23678 | 33063 ft | 518 kts | 105° |
| 2026-04-30 21:48 | 41.07895 | 39.32990 | 33068 ft | 518 kts | 105° |
| 2026-04-30 21:49 | 41.06238 | 39.42290 | 33077 ft | 518 kts | 105° |
| 2026-04-30 21:49 | 41.04576 | 39.51586 | 33087 ft | 518 kts | 105° |
| 2026-04-30 21:50 | 41.02905 | 39.60882 | 33095 ft | 518 kts | 105° |
| 2026-04-30 21:50 | 41.01351 | 39.70220 | 33099 ft | 519 kts | 101° |
| 2026-04-30 21:51 | 41.00656 | 39.79759 | 33099 ft | 521 kts | 92° |
| 2026-04-30 21:51 | 41.01009 | 39.89366 | 33100 ft | 522 kts | 83° |
| 2026-04-30 21:52 | 41.02268 | 39.98796 | 33091 ft | 523 kts | 78° |
| 2026-04-30 21:52 | 41.03721 | 40.08258 | 33080 ft | 523 kts | 78° |
| 2026-04-30 21:53 | 41.05147 | 40.17721 | 33071 ft | 524 kts | 79° |
| 2026-04-30 21:53 | 41.06548 | 40.27207 | 33067 ft | 524 kts | 79° |
| 2026-04-30 21:54 | 41.07934 | 40.36695 | 33070 ft | 524 kts | 79° |
| 2026-04-30 21:54 | 41.09316 | 40.46218 | 33077 ft | 524 kts | 79° |
| 2026-04-30 21:55 | 41.10686 | 40.55722 | 33088 ft | 524 kts | 79° |
| 2026-04-30 21:55 | 41.12047 | 40.65226 | 33091 ft | 524 kts | 79° |
| 2026-04-30 21:56 | 41.13366 | 40.74484 | 33102 ft | 524 kts | 79° |
| 2026-04-30 21:56 | 41.14732 | 40.84133 | 33217 ft | 528 kts | 79° |
| 2026-04-30 21:57 | 41.15414 | 40.88973 | 33685 ft | 525 kts | 79° |
| 2026-04-30 21:57 | 41.16081 | 40.93725 | 34175 ft | 521 kts | 79° |
| 2026-04-30 21:57 | 41.16741 | 40.98429 | 34679 ft | 515 kts | 79° |
| 2026-04-30 21:57 | 41.17389 | 41.03065 | 35339 ft | 505 kts | 80° |
| 2026-04-30 21:58 | 41.18026 | 41.07633 | 35837 ft | 500 kts | 80° |
| 2026-04-30 21:58 | 41.18654 | 41.12157 | 36082 ft | 494 kts | 80° |
| 2026-04-30 21:58 | 41.19889 | 41.21101 | 36081 ft | 491 kts | 80° |
| 2026-04-30 21:59 | 41.20909 | 41.28540 | 36080 ft | 491 kts | 80° |
| 2026-04-30 22:00 | 41.24816 | 41.57342 | 36078 ft | 492 kts | 80° |
| 2026-04-30 22:01 | 41.26020 | 41.66337 | 36095 ft | 493 kts | 80° |
| 2026-04-30 22:01 | 41.27209 | 41.75265 | 36085 ft | 493 kts | 81° |
| 2026-04-30 22:02 | 41.28398 | 41.84251 | 36087 ft | 493 kts | 81° |
| 2026-04-30 22:02 | 41.29587 | 41.93299 | 36093 ft | 495 kts | 81° |
| 2026-04-30 22:03 | 41.30781 | 42.02444 | 36089 ft | 504 kts | 81° |
| 2026-04-30 22:03 | 41.31782 | 42.10151 | 36093 ft | 504 kts | 81° |
| 2026-04-30 22:04 | 41.32964 | 42.19303 | 36097 ft | 505 kts | 81° |
| 2026-04-30 22:05 | 41.34740 | 42.33156 | 36099 ft | 505 kts | 81° |
| 2026-04-30 22:05 | 41.35911 | 42.42378 | 36114 ft | 505 kts | 81° |
| 2026-04-30 22:06 | 41.37076 | 42.51607 | 36108 ft | 495 kts | 81° |
| 2026-04-30 22:06 | 41.38770 | 42.65143 | 36114 ft | 493 kts | 81° |
| 2026-04-30 22:07 | 41.39889 | 42.74159 | 36118 ft | 493 kts | 81° |
| 2026-04-30 22:07 | 41.41002 | 42.83174 | 36132 ft | 492 kts | 82° |
| 2026-04-30 22:08 | 41.42097 | 42.92191 | 36123 ft | 492 kts | 83° |
| 2026-04-30 22:08 | 41.42675 | 43.01273 | 36130 ft | 491 kts | 91° |
| 2026-04-30 22:09 | 41.42530 | 43.10356 | 36126 ft | 489 kts | 94° |
| 2026-04-30 22:09 | 41.42269 | 43.19429 | 36117 ft | 489 kts | 94° |
| 2026-04-30 22:10 | 41.42018 | 43.28528 | 36131 ft | 489 kts | 94° |
| 2026-04-30 22:10 | 41.41770 | 43.37604 | 36118 ft | 489 kts | 94° |
| 2026-04-30 22:11 | 41.41389 | 43.51257 | 36119 ft | 489 kts | 94° |
| 2026-04-30 22:12 | 41.41127 | 43.60329 | 36135 ft | 489 kts | 94° |
| 2026-04-30 22:12 | 41.40858 | 43.69413 | 36132 ft | 489 kts | 94° |
| 2026-04-30 22:13 | 41.40582 | 43.78475 | 36148 ft | 489 kts | 94° |
| 2026-04-30 22:13 | 41.40302 | 43.87467 | 36151 ft | 489 kts | 94° |
| 2026-04-30 22:14 | 41.40012 | 43.96524 | 36153 ft | 489 kts | 94° |
| 2026-04-30 22:14 | 41.39715 | 44.05581 | 36170 ft | 488 kts | 94° |
| 2026-04-30 22:15 | 41.39412 | 44.14632 | 36172 ft | 488 kts | 94° |
| 2026-04-30 22:15 | 41.39101 | 44.23681 | 36176 ft | 488 kts | 94° |
| 2026-04-30 22:16 | 41.38783 | 44.32730 | 36176 ft | 488 kts | 94° |
| 2026-04-30 22:17 | 41.38128 | 44.50800 | 36177 ft | 488 kts | 95° |
| 2026-04-30 22:17 | 41.37619 | 44.64338 | 36176 ft | 487 kts | 95° |
| 2026-04-30 22:18 | 41.37095 | 44.77864 | 36178 ft | 487 kts | 95° |
| 2026-04-30 22:19 | 41.36556 | 44.91380 | 36168 ft | 486 kts | 95° |
| 2026-04-30 22:20 | 41.35796 | 45.04786 | 36171 ft | 485 kts | 101° |
| 2026-04-30 22:20 | 41.33459 | 45.17820 | 36165 ft | 480 kts | 111° |
| 2026-04-30 22:21 | 41.31285 | 45.26219 | 36162 ft | 479 kts | 112° |
| 2026-04-30 22:21 | 41.29105 | 45.34609 | 36165 ft | 479 kts | 112° |
| 2026-04-30 22:22 | 41.26935 | 45.42986 | 36168 ft | 478 kts | 112° |
| 2026-04-30 22:22 | 41.24766 | 45.51356 | 36165 ft | 478 kts | 112° |
| 2026-04-30 22:23 | 41.22593 | 45.59717 | 36167 ft | 478 kts | 112° |
| 2026-04-30 22:23 | 41.20413 | 45.68076 | 36164 ft | 478 kts | 112° |
| 2026-04-30 22:24 | 41.18230 | 45.76422 | 36165 ft | 478 kts | 112° |
| 2026-04-30 22:24 | 41.16040 | 45.84764 | 36162 ft | 478 kts | 112° |
| 2026-04-30 22:25 | 41.13845 | 45.93094 | 36169 ft | 478 kts | 112° |
| 2026-04-30 22:25 | 41.11652 | 46.01393 | 36172 ft | 478 kts | 112° |
| 2026-04-30 22:26 | 41.08332 | 46.13900 | 36170 ft | 478 kts | 112° |
| 2026-04-30 22:27 | 41.06115 | 46.22219 | 36169 ft | 478 kts | 112° |
| 2026-04-30 22:27 | 41.02775 | 46.34697 | 36163 ft | 478 kts | 112° |
| 2026-04-30 22:28 | 40.99425 | 46.47154 | 36166 ft | 478 kts | 112° |
| 2026-04-30 22:29 | 40.94935 | 46.63757 | 36170 ft | 478 kts | 112° |
| 2026-04-30 22:30 | 40.91400 | 46.80730 | 36165 ft | 482 kts | 96° |
| 2026-04-30 22:31 | 40.91998 | 46.94020 | 36168 ft | 485 kts | 77° |
| 2026-04-30 22:32 | 40.96069 | 47.15647 | 36176 ft | 485 kts | 76° |
| 2026-04-30 22:33 | 41.00057 | 47.37387 | 36171 ft | 485 kts | 77° |
| 2026-04-30 22:35 | 41.03990 | 47.59143 | 36147 ft | 485 kts | 77° |
| 2026-04-30 22:36 | 41.07888 | 47.80939 | 36129 ft | 486 kts | 77° |
| 2026-04-30 22:37 | 41.11256 | 47.98289 | 36106 ft | 485 kts | 71° |
| 2026-04-30 22:38 | 41.16649 | 48.14686 | 36099 ft | 485 kts | 64° |
| 2026-04-30 22:39 | 41.20877 | 48.26820 | 36107 ft | 484 kts | 65° |
| 2026-04-30 22:40 | 41.29265 | 48.51195 | 36124 ft | 482 kts | 65° |
| 2026-04-30 22:41 | 41.36201 | 48.71530 | 36141 ft | 482 kts | 65° |
| 2026-04-30 22:43 | 41.44464 | 48.95951 | 36144 ft | 481 kts | 66° |
| 2026-04-30 22:44 | 41.49942 | 49.12259 | 36141 ft | 481 kts | 66° |
| 2026-04-30 22:45 | 41.58112 | 49.36761 | 36141 ft | 481 kts | 66° |
| 2026-04-30 22:47 | 41.66216 | 49.61284 | 36144 ft | 481 kts | 66° |
| 2026-04-30 22:48 | 41.71601 | 49.77701 | 36144 ft | 481 kts | 66° |
| 2026-04-30 22:49 | 41.79639 | 50.02391 | 36144 ft | 482 kts | 67° |
| 2026-04-30 22:51 | 41.87626 | 50.27152 | 36150 ft | 482 kts | 67° |
| 2026-04-30 22:52 | 41.91157 | 50.38168 | 36150 ft | 482 kts | 68° |
| 2026-04-30 22:53 | 41.96438 | 50.54735 | 36152 ft | 482 kts | 68° |
| 2026-04-30 22:53 | 42.00385 | 50.67183 | 36152 ft | 482 kts | 68° |
| 2026-04-30 22:55 | 42.06935 | 50.87966 | 36149 ft | 482 kts | 68° |
| 2026-04-30 22:56 | 42.12148 | 51.04625 | 36149 ft | 482 kts | 68° |
| 2026-04-30 22:57 | 42.18629 | 51.25485 | 36147 ft | 482 kts | 69° |
| 2026-04-30 22:58 | 42.23789 | 51.42208 | 36145 ft | 482 kts | 69° |
| 2026-04-30 22:59 | 42.31481 | 51.67338 | 36142 ft | 482 kts | 69° |